createdAt,value
2022-08-25T00:01:50.428Z,24.33
2022-08-25T00:04:18.537Z,24.27
2022-08-25T00:06:46.608Z,24.24
2022-08-25T00:09:16.555Z,24.19
2022-08-25T00:11:43.870Z,24.18
2022-08-25T00:14:14.414Z,24.16
2022-08-25T00:16:41.598Z,24.14
2022-08-25T00:19:12.986Z,24.11
2022-08-25T00:21:40.924Z,24.09
2022-08-25T00:24:09.943Z,24.04
2022-08-25T00:26:40.058Z,24.00
2022-08-25T00:29:07.078Z,23.96
2022-08-25T00:31:38.836Z,23.92
2022-08-25T00:34:13.081Z,23.90
2022-08-25T00:36:39.608Z,23.87
2022-08-25T00:39:08.426Z,23.87
2022-08-25T00:41:36.006Z,23.84
2022-08-25T00:44:06.200Z,23.83
2022-08-25T00:46:37.577Z,23.81
2022-08-25T00:49:20.856Z,23.78
2022-08-25T00:52:09.123Z,23.73
2022-08-25T00:54:50.156Z,23.70
2022-08-25T00:57:31.759Z,23.69
2022-08-25T01:00:03.562Z,23.65
2022-08-25T01:02:30.137Z,23.65
2022-08-25T01:04:56.666Z,23.61
2022-08-25T01:07:23.794Z,23.58
2022-08-25T01:09:52.667Z,23.57
2022-08-25T01:12:19.552Z,23.55
2022-08-25T01:14:46.719Z,23.53
2022-08-25T01:17:14.438Z,23.50
2022-08-25T01:19:41.099Z,23.49
2022-08-25T01:22:08.505Z,23.48
2022-08-25T01:24:44.977Z,23.45
2022-08-25T01:27:11.529Z,23.42
2022-08-25T01:29:38.785Z,23.39
2022-08-25T01:32:09.715Z,23.36
2022-08-25T01:34:43.674Z,23.33
2022-08-25T01:37:13.158Z,23.32
2022-08-25T01:39:40.151Z,23.31
2022-08-25T01:42:06.673Z,23.28
2022-08-25T01:44:35.853Z,23.28
2022-08-25T01:47:03.965Z,23.25
2022-08-25T01:49:30.455Z,23.22
2022-08-25T01:52:01.997Z,23.18
2022-08-25T01:54:28.509Z,23.16
2022-08-25T01:56:55.508Z,23.14
2022-08-25T01:59:23.983Z,23.10
2022-08-25T02:01:51.735Z,23.08
2022-08-25T02:04:29.421Z,23.07
2022-08-25T02:06:56.045Z,23.04
2022-08-25T02:09:22.917Z,23.02
2022-08-25T02:11:49.430Z,22.98
2022-08-25T02:14:18.018Z,22.96
2022-08-25T02:16:49.706Z,22.94
2022-08-25T02:19:18.416Z,22.92
2022-08-25T02:21:45.281Z,22.90
2022-08-25T02:24:12.477Z,22.87
2022-08-25T02:26:39.677Z,22.86
2022-08-25T02:29:07.441Z,22.84
2022-08-25T02:31:35.035Z,22.82
2022-08-25T02:34:02.349Z,22.83
2022-08-25T02:36:30.265Z,22.79
2022-08-25T02:38:57.803Z,22.77
2022-08-25T02:41:28.833Z,22.76
2022-08-25T02:43:58.482Z,22.76
2022-08-25T02:46:25.163Z,22.75
2022-08-25T02:48:53.233Z,22.75
2022-08-25T02:51:26.203Z,22.73
2022-08-25T02:53:52.822Z,22.68
2022-08-25T02:56:20.065Z,22.67
2022-08-25T02:58:47.613Z,22.64
2022-08-25T03:01:15.260Z,22.63
2022-08-25T03:03:44.279Z,22.63
2022-08-25T03:06:13.574Z,22.61
2022-08-25T03:08:42.058Z,22.60
2022-08-25T03:11:08.873Z,22.58
2022-08-25T03:13:35.605Z,22.56
2022-08-25T03:16:03.102Z,22.55
2022-08-25T03:18:30.626Z,22.51
2022-08-25T03:20:57.737Z,22.45
2022-08-25T03:23:24.834Z,22.44
2022-08-25T03:26:09.683Z,22.42
2022-08-25T03:28:36.418Z,22.36
2022-08-25T03:31:03.101Z,22.32
2022-08-25T03:33:30.990Z,22.29
2022-08-25T03:35:57.976Z,22.29
2022-08-25T03:38:25.305Z,22.26
2022-08-25T03:40:52.758Z,22.25
2022-08-25T03:43:19.763Z,22.20
2022-08-25T03:45:47.112Z,22.17
2022-08-25T03:48:14.470Z,22.15
2022-08-25T03:50:50.570Z,22.10
2022-08-25T03:53:19.505Z,22.08
2022-08-25T03:55:46.125Z,22.05
2022-08-25T03:58:12.671Z,22.02
2022-08-25T04:00:39.337Z,22.00
2022-08-25T04:03:05.872Z,21.95
2022-08-25T04:05:32.949Z,21.91
2022-08-25T04:08:01.641Z,21.90
2022-08-25T04:10:28.750Z,21.86
2022-08-25T04:12:55.911Z,21.86
2022-08-25T04:15:23.967Z,21.81
2022-08-25T04:17:55.302Z,21.75
2022-08-25T04:20:21.809Z,21.72
2022-08-25T04:22:48.375Z,21.73
2022-08-25T04:25:14.868Z,21.72
2022-08-25T04:27:41.464Z,21.69
2022-08-25T04:30:08.512Z,21.66
2022-08-25T04:32:36.314Z,21.60
2022-08-25T04:35:04.335Z,21.56
2022-08-25T04:37:30.867Z,21.56
2022-08-25T04:39:57.617Z,21.53
2022-08-25T04:42:26.268Z,21.50
2022-08-25T04:44:52.769Z,21.53
2022-08-25T04:47:19.229Z,21.50
2022-08-25T04:49:45.754Z,21.49
2022-08-25T04:52:14.515Z,21.48
2022-08-25T04:54:42.121Z,21.47
2022-08-25T04:57:08.671Z,21.46
2022-08-25T04:59:35.232Z,21.47
2022-08-25T05:02:03.235Z,21.48
2022-08-25T05:04:30.637Z,21.46
2022-08-25T05:06:57.497Z,21.44
2022-08-25T05:09:25.353Z,21.43
2022-08-25T05:11:52.485Z,21.43
2022-08-25T05:14:25.608Z,21.44
2022-08-25T05:16:54.899Z,21.44
2022-08-25T05:19:23.823Z,21.56
2022-08-25T05:21:51.079Z,21.63
2022-08-25T05:24:18.405Z,21.69
2022-08-25T05:26:44.975Z,21.75
2022-08-25T05:29:11.715Z,21.86
2022-08-25T05:31:42.331Z,22.15
2022-08-25T05:34:12.066Z,22.45
2022-08-25T05:36:43.008Z,22.69
2022-08-25T05:39:10.262Z,22.95
2022-08-25T05:41:37.111Z,23.16
2022-08-25T05:44:03.954Z,23.32
2022-08-25T05:46:31.641Z,23.47
2022-08-25T05:48:59.479Z,23.60
2022-08-25T05:51:26.543Z,23.73
2022-08-25T05:53:53.256Z,23.84
2022-08-25T05:56:20.867Z,23.95
2022-08-25T05:58:47.977Z,24.02
2022-08-25T06:01:47.907Z,24.15
2022-08-25T06:04:17.601Z,24.25
2022-08-25T06:06:44.040Z,24.33
2022-08-25T06:09:10.589Z,24.42
2022-08-25T06:11:39.666Z,24.48
2022-08-25T06:14:06.563Z,24.51
2022-08-25T06:16:33.271Z,24.56
2022-08-25T06:19:01.002Z,24.59
2022-08-25T06:21:27.709Z,24.58
2022-08-25T06:23:54.204Z,24.57
2022-08-25T06:26:21.441Z,24.57
2022-08-25T06:28:50.714Z,24.50
2022-08-25T06:31:18.764Z,24.58
2022-08-25T06:33:45.571Z,24.64
2022-08-25T06:36:12.034Z,24.66
2022-08-25T06:38:38.687Z,24.64
2022-08-25T06:41:07.062Z,24.71
2022-08-25T06:43:34.368Z,24.79
2022-08-25T06:46:17.846Z,24.87
2022-08-25T06:48:44.449Z,24.94
2022-08-25T06:51:14.411Z,25.06
2022-08-25T06:53:42.772Z,25.21
2022-08-25T06:56:09.726Z,25.41
2022-08-25T06:58:36.210Z,25.58
2022-08-25T07:01:20.539Z,25.78
2022-08-25T07:03:48.317Z,25.95
2022-08-25T07:06:18.510Z,26.17
2022-08-25T07:08:46.576Z,26.36
2022-08-25T07:11:16.666Z,26.61
2022-08-25T07:13:45.442Z,26.85
2022-08-25T07:16:12.300Z,27.02
2022-08-25T07:18:38.964Z,27.17
2022-08-25T07:21:09.109Z,27.33
2022-08-25T07:23:36.178Z,27.46
2022-08-25T07:26:36.824Z,27.70
2022-08-25T07:29:08.921Z,27.89
2022-08-25T07:31:35.454Z,28.07
2022-08-25T07:34:21.078Z,28.26
2022-08-25T07:36:47.989Z,28.47
2022-08-25T07:39:14.693Z,28.71
2022-08-25T07:41:42.075Z,28.80
2022-08-25T07:44:11.155Z,28.99
2022-08-25T07:46:38.298Z,29.09
2022-08-25T07:49:05.437Z,29.16
2022-08-25T07:52:03.637Z,29.41
2022-08-25T07:54:33.977Z,29.56
2022-08-25T07:57:03.561Z,29.65
2022-08-25T07:59:30.876Z,29.78
2022-08-25T08:02:05.648Z,30.00
2022-08-25T08:04:32.122Z,30.25
2022-08-25T08:06:58.591Z,30.51
2022-08-25T08:09:25.135Z,30.71
2022-08-25T08:11:54.364Z,30.79
2022-08-25T08:14:21.317Z,30.98
2022-08-25T08:16:47.885Z,31.17
2022-08-25T08:19:14.533Z,31.41
2022-08-25T08:21:41.806Z,31.61
2022-08-25T08:24:24.832Z,31.72
2022-08-25T08:26:58.966Z,31.90
2022-08-25T08:29:26.758Z,32.11
2022-08-25T08:31:53.471Z,32.24
2022-08-25T08:34:20.043Z,32.42
2022-08-25T08:36:51.607Z,32.60
2022-08-25T08:39:18.289Z,32.68
2022-08-25T08:42:18.933Z,32.70
2022-08-25T08:44:45.380Z,32.79
2022-08-25T08:47:22.495Z,33.06
2022-08-25T08:50:01.410Z,33.17
2022-08-25T08:52:43.320Z,33.37
2022-08-25T08:55:23.480Z,33.65
2022-08-25T08:57:52.554Z,33.75
2022-08-25T09:00:21.853Z,33.80
2022-08-25T09:03:07.651Z,33.92
2022-08-25T09:05:49.597Z,34.00
2022-08-25T09:08:20.403Z,34.02
2022-08-25T09:10:57.362Z,34.33
2022-08-25T09:13:34.785Z,34.25
2022-08-25T09:16:35.779Z,33.98
2022-08-25T09:19:23.660Z,34.35
2022-08-25T09:22:33.628Z,34.53
2022-08-25T09:25:10.977Z,34.73
2022-08-25T09:27:44.373Z,34.83
2022-08-25T09:30:17.054Z,35.10
2022-08-25T09:32:52.201Z,35.38
2022-08-25T09:35:26.064Z,35.47
2022-08-25T09:38:03.482Z,35.57
2022-08-25T09:40:33.696Z,35.75
2022-08-25T09:43:02.938Z,36.06
2022-08-25T09:45:34.965Z,36.20
2022-08-25T09:48:02.307Z,36.18
2022-08-25T09:50:34.795Z,36.38
2022-08-25T09:53:17.228Z,36.50
2022-08-25T09:55:44.905Z,36.63
2022-08-25T09:58:22.711Z,36.77
2022-08-25T10:01:06.914Z,36.83
2022-08-25T10:03:36.655Z,36.97
2022-08-25T10:06:07.744Z,37.13
2022-08-25T10:08:53.287Z,37.17
2022-08-25T10:11:44.894Z,37.32
2022-08-25T10:14:29.001Z,37.68
2022-08-25T10:17:16.975Z,37.76
2022-08-25T10:19:43.723Z,37.95
2022-08-25T10:22:32.415Z,37.95
2022-08-25T10:25:00.009Z,38.10
2022-08-25T10:27:45.342Z,38.03
2022-08-25T10:30:19.879Z,38.43
2022-08-25T10:32:52.333Z,38.62
2022-08-25T10:35:29.085Z,38.58
2022-08-25T10:38:28.191Z,38.80
2022-08-25T10:41:08.807Z,38.89
2022-08-25T10:43:47.121Z,38.96
2022-08-25T10:46:22.428Z,39.04
2022-08-25T10:49:00.859Z,39.16
2022-08-25T10:51:47.762Z,39.05
2022-08-25T10:54:29.089Z,39.25
2022-08-25T10:57:26.558Z,39.44
2022-08-25T11:00:14.424Z,39.58
2022-08-25T11:03:11.797Z,39.96
2022-08-25T11:05:47.153Z,40.18
2022-08-25T11:08:33.737Z,40.29
2022-08-25T11:11:08.472Z,40.41
2022-08-25T11:13:47.534Z,40.23
2022-08-25T11:16:18.941Z,40.45
2022-08-25T11:19:05.396Z,40.51
2022-08-25T11:21:45.461Z,40.57
2022-08-25T11:24:18.521Z,40.54
2022-08-25T11:26:53.361Z,40.85
2022-08-25T11:29:21.841Z,40.90
2022-08-25T11:31:53.826Z,40.63
2022-08-25T11:34:22.351Z,40.75
2022-08-25T11:36:57.584Z,40.81
2022-08-25T11:39:34.614Z,40.68
2022-08-25T11:42:21.464Z,40.48
2022-08-25T11:45:02.359Z,40.49
2022-08-25T11:47:31.576Z,40.50
2022-08-25T11:50:03.319Z,40.63
2022-08-25T11:52:32.762Z,40.47
2022-08-25T11:55:23.386Z,40.72
2022-08-25T11:57:53.596Z,40.85
2022-08-25T12:00:43.705Z,41.19
2022-08-25T12:03:32.019Z,41.13
2022-08-25T12:06:29.831Z,41.13
2022-08-25T12:09:05.932Z,41.18
2022-08-25T12:11:38.410Z,40.91
2022-08-25T12:14:13.739Z,41.01
2022-08-25T12:16:55.617Z,41.14
2022-08-25T12:19:34.225Z,40.69
2022-08-25T12:22:04.017Z,40.76
2022-08-25T12:24:48.098Z,40.91
2022-08-25T12:27:50.623Z,41.00
2022-08-25T12:30:26.347Z,41.22
2022-08-25T12:33:03.111Z,41.07
2022-08-25T12:35:57.237Z,41.28
2022-08-25T12:38:42.480Z,41.30
2022-08-25T12:41:24.271Z,40.62
2022-08-25T12:43:53.239Z,40.61
2022-08-25T12:46:19.739Z,40.60
2022-08-25T12:49:02.598Z,40.54
2022-08-25T12:51:54.437Z,40.62
2022-08-25T12:54:47.692Z,40.96
2022-08-25T12:57:49.897Z,41.19
2022-08-25T13:00:37.470Z,41.16
2022-08-25T13:06:18.939Z,41.32
2022-08-25T13:08:54.363Z,41.29
2022-08-25T13:11:46.323Z,41.46
2022-08-25T13:14:22.693Z,41.23
2022-08-25T13:16:57.801Z,41.45
2022-08-25T13:19:25.701Z,41.56
2022-08-25T13:21:52.518Z,41.29
2022-08-25T13:24:28.047Z,41.32
2022-08-25T13:26:57.138Z,41.45
2022-08-25T13:29:26.720Z,41.39
2022-08-25T13:31:57.420Z,41.15
2022-08-25T13:34:30.414Z,41.12
2022-08-25T13:37:29.650Z,40.79
2022-08-25T13:40:12.971Z,40.27
2022-08-25T13:42:42.537Z,40.74
2022-08-25T13:45:17.070Z,40.94
2022-08-25T13:47:45.996Z,40.50
2022-08-25T13:50:26.315Z,40.19
2022-08-25T13:52:57.588Z,39.94
2022-08-25T13:55:28.616Z,39.99
2022-08-25T13:57:58.105Z,40.04
2022-08-25T14:00:32.446Z,40.05
2022-08-25T14:03:02.033Z,40.03
2022-08-25T14:05:42.850Z,39.79
2022-08-25T14:08:31.495Z,39.91
2022-08-25T14:11:30.566Z,39.86
2022-08-25T14:14:03.634Z,39.63
2022-08-25T14:16:37.246Z,39.75
2022-08-25T14:19:04.498Z,39.84
2022-08-25T14:21:33.002Z,40.09
2022-08-25T14:24:01.129Z,40.10
2022-08-25T14:26:27.602Z,40.32
2022-08-25T14:28:54.194Z,40.09
2022-08-25T14:31:30.683Z,40.07
2022-08-25T14:34:02.538Z,39.94
2022-08-25T14:36:30.050Z,40.02
2022-08-25T14:38:57.548Z,39.99
2022-08-25T14:41:25.721Z,39.61
2022-08-25T14:43:53.504Z,39.31
2022-08-25T14:46:24.834Z,39.22
2022-08-25T14:48:56.521Z,38.80
2022-08-25T14:51:25.728Z,38.79
2022-08-25T14:53:56.189Z,38.63
2022-08-25T14:56:22.987Z,38.35
2022-08-25T14:58:51.507Z,38.58
2022-08-25T15:01:29.352Z,38.21
2022-08-25T15:04:15.936Z,38.25
2022-08-25T15:06:45.030Z,37.80
2022-08-25T15:09:16.077Z,37.57
2022-08-25T15:11:46.519Z,37.51
2022-08-25T15:14:15.713Z,37.36
2022-08-25T15:16:47.815Z,37.05
2022-08-25T15:19:18.513Z,37.14
2022-08-25T15:21:47.054Z,37.05
2022-08-25T15:24:17.440Z,36.76
2022-08-25T15:26:56.210Z,36.32
2022-08-25T15:29:26.137Z,36.22
2022-08-25T15:31:53.009Z,36.21
2022-08-25T15:34:19.721Z,36.17
2022-08-25T15:36:47.299Z,36.07
2022-08-25T15:39:14.590Z,36.08
2022-08-25T15:41:42.743Z,35.92
2022-08-25T15:44:11.419Z,35.94
2022-08-25T15:46:41.310Z,35.97
2022-08-25T15:49:08.091Z,35.85
2022-08-25T15:51:34.749Z,35.71
2022-08-25T15:54:01.262Z,35.67
2022-08-25T15:56:27.865Z,35.64
2022-08-25T15:58:55.347Z,35.57
2022-08-25T16:01:25.177Z,35.46
2022-08-25T16:03:52.196Z,35.37
2022-08-25T16:06:19.451Z,35.34
2022-08-25T16:08:46.152Z,35.31
2022-08-25T16:11:18.772Z,35.18
2022-08-25T16:13:49.266Z,35.00
2022-08-25T16:16:17.636Z,34.88
2022-08-25T16:18:44.792Z,34.79
2022-08-25T16:21:14.963Z,34.68
2022-08-25T16:23:41.579Z,34.72
2022-08-25T16:26:10.782Z,34.76
2022-08-25T16:28:40.533Z,34.79
2022-08-25T16:31:12.724Z,34.82
2022-08-25T16:36:12.831Z,34.76
2022-08-25T16:38:40.581Z,34.64
2022-08-25T16:41:09.784Z,34.54
2022-08-25T16:43:36.801Z,34.47
2022-08-25T16:46:08.570Z,34.39
2022-08-25T16:48:37.967Z,34.37
2022-08-25T16:51:17.669Z,34.33
2022-08-25T16:54:04.709Z,34.22
2022-08-25T16:56:35.040Z,34.16
2022-08-25T16:59:03.282Z,34.11
2022-08-25T17:01:34.032Z,34.05
2022-08-25T17:04:01.834Z,33.94
2022-08-25T17:06:30.100Z,33.88
2022-08-25T17:08:56.645Z,33.88
2022-08-25T17:11:27.525Z,33.85
2022-08-25T17:13:59.115Z,33.82
2022-08-25T17:16:29.923Z,33.77
2022-08-25T17:18:59.767Z,33.76
2022-08-25T17:21:30.746Z,33.67
2022-08-25T17:23:57.823Z,33.56
2022-08-25T17:26:28.030Z,33.50
2022-08-25T17:28:59.666Z,33.39
2022-08-25T17:31:27.856Z,33.30
2022-08-25T17:33:55.050Z,33.21
2022-08-25T17:36:27.020Z,33.14
2022-08-25T17:38:55.102Z,33.06
2022-08-25T17:41:23.925Z,32.95
2022-08-25T17:43:50.550Z,32.86
2022-08-25T17:46:17.584Z,32.77
2022-08-25T17:48:44.764Z,32.68
2022-08-25T17:51:12.709Z,32.62
2022-08-25T17:53:43.505Z,32.55
2022-08-25T17:56:13.957Z,32.48
2022-08-25T17:58:41.767Z,32.38
2022-08-25T18:01:16.257Z,32.26
2022-08-25T18:03:43.445Z,32.17
2022-08-25T18:06:12.153Z,32.08
2022-08-25T18:08:43.426Z,31.97
2022-08-25T18:11:09.984Z,31.86
2022-08-25T18:13:38.657Z,31.75
2022-08-25T18:16:07.722Z,31.66
2022-08-25T18:18:35.752Z,31.57
2022-08-25T18:21:02.606Z,31.51
2022-08-25T18:23:29.660Z,31.46
2022-08-25T18:26:00.794Z,31.37
2022-08-25T18:28:28.733Z,31.24
2022-08-25T18:30:55.478Z,31.17
2022-08-25T18:33:22.888Z,31.11
2022-08-25T18:35:49.434Z,31.03
2022-08-25T18:38:34.468Z,30.96
2022-08-25T18:41:05.108Z,30.88
2022-08-25T18:43:33.749Z,30.78
2022-08-25T18:46:04.092Z,30.69
2022-08-25T18:48:32.364Z,30.59
2022-08-25T18:51:00.644Z,30.53
2022-08-25T18:53:30.573Z,30.47
2022-08-25T18:56:16.109Z,30.38
2022-08-25T18:58:42.573Z,30.32
2022-08-25T19:01:14.103Z,30.25
2022-08-25T19:03:40.648Z,30.19
2022-08-25T19:06:08.918Z,30.14
2022-08-25T19:08:36.438Z,30.09
2022-08-25T19:11:02.903Z,30.01
2022-08-25T19:13:29.397Z,29.92
2022-08-25T19:15:55.967Z,29.82
2022-08-25T19:18:25.934Z,29.72
2022-08-25T19:20:56.218Z,29.64
2022-08-25T19:23:22.702Z,29.55
2022-08-25T19:25:49.144Z,29.50
2022-08-25T19:28:16.150Z,29.45
2022-08-25T19:30:50.062Z,29.37
2022-08-25T19:33:44.047Z,29.31
2022-08-25T19:36:06.384Z,29.21
2022-08-25T19:38:36.972Z,29.12
2022-08-25T19:41:14.099Z,29.07
2022-08-25T19:43:56.368Z,28.96
2022-08-25T19:46:33.336Z,28.86
2022-08-25T19:49:08.140Z,28.80
2022-08-25T19:51:37.778Z,28.71
2022-08-25T19:54:05.238Z,28.64
2022-08-25T19:56:33.570Z,28.57
2022-08-25T19:59:00.175Z,28.51
2022-08-25T20:01:26.795Z,28.45
2022-08-25T20:03:53.609Z,28.41
2022-08-25T20:06:23.683Z,28.36
2022-08-25T20:08:59.036Z,28.35
2022-08-25T20:11:28.996Z,28.36
2022-08-25T20:14:03.910Z,28.32
2022-08-25T20:16:30.739Z,28.12
2022-08-25T20:18:57.266Z,27.93
2022-08-25T20:21:24.093Z,27.81
2022-08-25T20:24:09.250Z,27.54
2022-08-25T20:26:36.312Z,27.30
2022-08-25T20:29:04.946Z,27.21
2022-08-25T20:31:32.426Z,27.09
2022-08-25T20:34:01.031Z,26.93
2022-08-25T20:36:29.408Z,26.86
2022-08-25T20:38:55.856Z,26.78
2022-08-25T20:41:25.500Z,26.69
2022-08-25T20:43:52.103Z,26.67
2022-08-25T20:46:19.070Z,26.57
2022-08-25T20:48:45.605Z,26.57
2022-08-25T20:51:12.996Z,26.47
2022-08-25T20:53:42.358Z,26.48
2022-08-25T20:56:09.540Z,26.32
2022-08-25T20:58:41.005Z,26.22
2022-08-25T21:01:23.084Z,26.01
2022-08-25T21:03:50.444Z,25.90
2022-08-25T21:06:17.360Z,25.89
2022-08-25T21:08:47.281Z,25.89
2022-08-25T21:11:17.763Z,25.85
2022-08-25T21:13:45.751Z,25.84
2022-08-25T21:16:12.674Z,25.87
2022-08-25T21:18:41.788Z,25.85
2022-08-25T21:21:15.525Z,25.83
2022-08-25T21:23:45.351Z,25.78
2022-08-25T21:26:17.002Z,25.70
2022-08-25T21:28:45.998Z,25.59
2022-08-25T21:31:15.994Z,25.58
2022-08-25T21:33:42.764Z,25.61
2022-08-25T21:36:10.749Z,25.56
2022-08-25T21:38:38.165Z,25.51
2022-08-25T21:41:12.863Z,25.45
2022-08-25T21:43:39.587Z,25.41
2022-08-25T21:46:12.005Z,25.38
2022-08-25T21:48:39.994Z,25.32
2022-08-25T21:51:09.076Z,25.15
2022-08-25T21:53:36.337Z,25.16
2022-08-25T21:56:08.662Z,25.14
2022-08-25T21:58:36.597Z,25.12
2022-08-25T22:01:14.343Z,25.02
2022-08-25T22:03:42.264Z,25.00
2022-08-25T22:06:15.165Z,24.98
2022-08-25T22:08:43.242Z,24.98
2022-08-25T22:11:10.591Z,25.04
2022-08-25T22:13:41.196Z,25.00
2022-08-25T22:16:11.437Z,24.94
2022-08-25T22:18:39.549Z,24.90
2022-08-25T22:21:09.600Z,24.84
2022-08-25T22:23:39.982Z,24.82
2022-08-25T22:26:12.293Z,24.70
2022-08-25T22:28:45.915Z,24.64
2022-08-25T22:31:14.454Z,24.61
2022-08-25T22:33:48.430Z,24.64
2022-08-25T22:36:25.260Z,24.62
2022-08-25T22:38:52.926Z,24.55
2022-08-25T22:41:21.503Z,24.41
2022-08-25T22:43:51.099Z,24.41
2022-08-25T22:46:20.534Z,24.44
2022-08-25T22:48:47.030Z,24.40
2022-08-25T22:51:20.994Z,24.30
2022-08-25T22:53:49.075Z,24.24
2022-08-25T22:56:17.877Z,24.21
2022-08-25T22:58:52.085Z,24.21
2022-08-25T23:01:20.333Z,24.18
2022-08-25T23:03:47.570Z,24.06
2022-08-25T23:06:25.049Z,24.01
2022-08-25T23:08:53.516Z,24.00
2022-08-25T23:11:23.553Z,24.05
2022-08-25T23:13:50.674Z,24.10
2022-08-25T23:16:17.921Z,23.94
2022-08-25T23:18:47.482Z,23.93
2022-08-25T23:21:35.346Z,23.89
2022-08-25T23:24:08.768Z,23.84
2022-08-25T23:26:37.680Z,23.83
2022-08-25T23:29:17.838Z,23.87
2022-08-25T23:31:46.711Z,23.85
2022-08-25T23:34:15.469Z,23.82
2022-08-25T23:36:43.585Z,23.82
2022-08-25T23:39:11.357Z,23.82
2022-08-25T23:41:37.850Z,23.75
2022-08-25T23:44:05.777Z,23.72
2022-08-25T23:46:34.829Z,23.77
2022-08-25T23:49:03.341Z,23.77
2022-08-25T23:51:33.934Z,23.72
2022-08-25T23:54:05.973Z,23.72
2022-08-25T23:56:34.291Z,23.68
2022-08-25T23:59:02.486Z,23.61
